Portada
METAR-TAF:

METAR-TAF

Aeroports :

Sibu, Malàisia

latitud: 02-20N, longitud: 111-50E, altitud: 8 m

Observació

L'informe es va fer fa 1 hora i 19 minuts, a les 13:00 UTC
Vent 3 kt del Est, variant entre Est/Nord-Est i Sud-Est
Temperatura 27°C
Humitat 94%
Pressió 1007 hPa
Visibilitat 10 km o més
Escasses núvols a una alçada de 1500 ft, Cumulonimbus.
Núvols disperses a una alçada de 1800 ft
pluja

METAR: WBGS 141300Z 09003KT 060V140 9999 -RA FEW015CB SCT018 27/26 Q1007

Hora: 22:19 (14:19 UTC)

Pronòstic

L'informe es va fer fa 3 hores i 19 minuts, a les 11:00 UTC
Pronòstic vàlid del 14 a les 12 UTC al 15 a les 12 UTC
Vent 5 kt del Oest/Sud-Oest
Visibilitat 10 km o més
Núvols disperses a una alçada de 1800 ft
Temporalment
l' 14 a les 12 UTC al 14 a les 15 UTC
Visibilitat: 5000 m
Escasses núvols a una alçada de 1500 ft, Cumulonimbus.
xàfecs de pluja

TAF: WBGS 141100Z 1412/1512 25005KT 9999 SCT018 TEMPO 1412/1415 5000 SHRA FEW015CB

Observacions i pronòstics meteorològics de més de 4000 aeroports (METAR i TAF).

Les estacions disponibles són els punts grocs i vermells al mapa.

Posi el ratolí al punt desitjat per veure el nom de l'estació.

Feu clic per veure les observacions i els pronòstics meteorològics.

Per canviar el mapa: feu clic els botons verds amb una creu de color negre per apropar; al botó verd amb un guió per allunyar la imatge; o en les fletxes verdes per a mapes adjacents.


METAR-TAF: